sensor_id;sensor_type;location;lat;lon;timestamp;pressure;altitude;pressure_sealevel;temperature;humidity
13456;BME280;6800;50.940;6.940;2023-04-08T00:00:30;101399.97;;;19.54;44.42
13456;BME280;6800;50.940;6.940;2023-04-08T00:04:31;101399.25;;;19.52;43.90
13456;BME280;6800;50.940;6.940;2023-04-08T00:08:33;101400.50;;;19.37;44.29
13456;BME280;6800;50.940;6.940;2023-04-08T00:12:34;101404.28;;;19.23;44.79
13456;BME280;6800;50.940;6.940;2023-04-08T00:16:36;101409.00;;;19.52;44.59
13456;BME280;6800;50.940;6.940;2023-04-08T00:20:37;101401.97;;;19.62;45.15
13456;BME280;6800;50.940;6.940;2023-04-08T00:24:39;101408.41;;;19.48;44.21
13456;BME280;6800;50.940;6.940;2023-04-08T00:28:41;101408.38;;;19.59;44.33
13456;BME280;6800;50.940;6.940;2023-04-08T00:32:43;101407.66;;;19.57;44.60
13456;BME280;6800;50.940;6.940;2023-04-08T00:36:44;101404.78;;;19.49;44.25
13456;BME280;6800;50.940;6.940;2023-04-08T00:40:47;101412.28;;;19.44;44.68
13456;BME280;6800;50.940;6.940;2023-04-08T00:44:49;101411.53;;;19.53;44.71
13456;BME280;6800;50.940;6.940;2023-04-08T00:48:50;101408.22;;;19.40;45.25
13456;BME280;6800;50.940;6.940;2023-04-08T00:52:52;101413.13;;;19.44;44.89
13456;BME280;6800;50.940;6.940;2023-04-08T00:56:53;101409.34;;;19.58;44.37
13456;BME280;6800;50.940;6.940;2023-04-08T01:01:21;101411.22;;;19.67;44.77
13456;BME280;6800;50.940;6.940;2023-04-08T01:05:44;101410.66;;;19.64;44.35
13456;BME280;6800;50.940;6.940;2023-04-08T01:09:52;101413.84;;;19.47;44.71
13456;BME280;6800;50.940;6.940;2023-04-08T01:13:55;101411.78;;;19.50;44.42
13456;BME280;6800;50.940;6.940;2023-04-08T01:17:58;101418.00;;;19.60;44.21
13456;BME280;6800;50.940;6.940;2023-04-08T01:22:04;101412.13;;;19.57;44.78
13456;BME280;6800;50.940;6.940;2023-04-08T01:26:12;101419.59;;;19.52;44.83
13456;BME280;6800;50.940;6.940;2023-04-08T01:30:22;101424.34;;;19.26;44.73
13456;BME280;6800;50.940;6.940;2023-04-08T01:34:24;101424.56;;;19.45;44.99
13456;BME280;6800;50.940;6.940;2023-04-08T01:38:26;101416.16;;;19.40;44.53
13456;BME280;6800;50.940;6.940;2023-04-08T01:42:28;101423.66;;;19.13;45.42
13456;BME280;6800;50.940;6.940;2023-04-08T01:46:31;101420.63;;;19.17;44.75
13456;BME280;6800;50.940;6.940;2023-04-08T01:50:33;101425.06;;;19.39;44.68
13456;BME280;6800;50.940;6.940;2023-04-08T01:54:35;101417.97;;;19.39;44.69
13456;BME280;6800;50.940;6.940;2023-04-08T01:58:41;101418.91;;;19.38;44.99
13456;BME280;6800;50.940;6.940;2023-04-08T02:02:43;101424.88;;;19.52;44.64
13456;BME280;6800;50.940;6.940;2023-04-08T02:06:47;101424.56;;;19.45;44.84
13456;BME280;6800;50.940;6.940;2023-04-08T02:10:49;101436.03;;;19.34;44.85
13456;BME280;6800;50.940;6.940;2023-04-08T02:14:50;101423.91;;;19.10;45.61
13456;BME280;6800;50.940;6.940;2023-04-08T02:18:58;101428.78;;;19.36;44.92
13456;BME280;6800;50.940;6.940;2023-04-08T02:23:11;101427.69;;;19.28;45.09
13456;BME280;6800;50.940;6.940;2023-04-08T02:27:15;101432.63;;;19.32;45.08
13456;BME280;6800;50.940;6.940;2023-04-08T02:31:18;101433.97;;;19.27;45.13
13456;BME280;6800;50.940;6.940;2023-04-08T02:35:21;101438.28;;;19.39;44.86
13456;BME280;6800;50.940;6.940;2023-04-08T02:39:30;101435.91;;;19.36;45.35
13456;BME280;6800;50.940;6.940;2023-04-08T02:43:32;101442.06;;;19.14;46.40
13456;BME280;6800;50.940;6.940;2023-04-08T02:47:33;101443.94;;;19.45;45.58
13456;BME280;6800;50.940;6.940;2023-04-08T02:51:35;101447.22;;;19.27;45.83
13456;BME280;6800;50.940;6.940;2023-04-08T02:55:36;101437.19;;;19.30;45.75
13456;BME280;6800;50.940;6.940;2023-04-08T02:59:38;101438.69;;;19.23;45.84
13456;BME280;6800;50.940;6.940;2023-04-08T03:03:41;101440.63;;;19.10;46.09
13456;BME280;6800;50.940;6.940;2023-04-08T03:07:42;101438.78;;;19.44;45.50
13456;BME280;6800;50.940;6.940;2023-04-08T03:11:44;101446.59;;;19.45;45.68
13456;BME280;6800;50.940;6.940;2023-04-08T03:15:45;101447.06;;;19.28;45.88
13456;BME280;6800;50.940;6.940;2023-04-08T03:19:46;101441.19;;;19.25;45.84
13456;BME280;6800;50.940;6.940;2023-04-08T03:23:48;101441.50;;;18.89;46.97
13456;BME280;6800;50.940;6.940;2023-04-08T03:27:49;101446.88;;;19.09;46.05
13456;BME280;6800;50.940;6.940;2023-04-08T03:31:51;101452.38;;;19.17;46.34
13456;BME280;6800;50.940;6.940;2023-04-08T03:35:53;101449.28;;;19.12;46.03
13456;BME280;6800;50.940;6.940;2023-04-08T03:39:55;101452.88;;;19.00;46.75
13456;BME280;6800;50.940;6.940;2023-04-08T03:43:57;101458.31;;;18.88;46.74
13456;BME280;6800;50.940;6.940;2023-04-08T03:47:58;101453.28;;;18.96;46.67
13456;BME280;6800;50.940;6.940;2023-04-08T03:51:59;101453.59;;;19.13;46.37
13456;BME280;6800;50.940;6.940;2023-04-08T03:56:01;101458.19;;;19.11;46.43
13456;BME280;6800;50.940;6.940;2023-04-08T04:00:04;101459.03;;;19.12;46.69
13456;BME280;6800;50.940;6.940;2023-04-08T04:04:06;101456.88;;;19.06;46.68
13456;BME280;6800;50.940;6.940;2023-04-08T04:08:07;101452.53;;;19.05;47.00
13456;BME280;6800;50.940;6.940;2023-04-08T04:12:09;101450.00;;;19.03;46.78
13456;BME280;6800;50.940;6.940;2023-04-08T04:16:11;101451.81;;;18.92;46.91
13456;BME280;6800;50.940;6.940;2023-04-08T04:20:12;101453.75;;;19.01;46.99
13456;BME280;6800;50.940;6.940;2023-04-08T04:24:13;101459.75;;;19.03;47.22
13456;BME280;6800;50.940;6.940;2023-04-08T04:28:15;101459.16;;;18.99;47.15
13456;BME280;6800;50.940;6.940;2023-04-08T04:32:16;101466.25;;;18.99;47.13
13456;BME280;6800;50.940;6.940;2023-04-08T04:36:19;101469.16;;;18.96;47.04
13456;BME280;6800;50.940;6.940;2023-04-08T04:40:21;101478.91;;;19.06;46.67
13456;BME280;6800;50.940;6.940;2023-04-08T04:44:22;101479.47;;;18.99;47.07
13456;BME280;6800;50.940;6.940;2023-04-08T04:48:24;101475.88;;;19.00;47.42
13456;BME280;6800;50.940;6.940;2023-04-08T04:52:25;101474.69;;;19.04;47.12
13456;BME280;6800;50.940;6.940;2023-04-08T04:56:27;101476.13;;;19.08;47.49
13456;BME280;6800;50.940;6.940;2023-04-08T05:00:28;101474.06;;;19.22;46.96
13456;BME280;6800;50.940;6.940;2023-04-08T05:04:30;101482.97;;;19.10;46.75
13456;BME280;6800;50.940;6.940;2023-04-08T05:08:31;101481.06;;;19.12;47.03
13456;BME280;6800;50.940;6.940;2023-04-08T05:12:32;101490.78;;;19.12;46.75
13456;BME280;6800;50.940;6.940;2023-04-08T05:16:34;101487.19;;;18.80;47.46
13456;BME280;6800;50.940;6.940;2023-04-08T05:20:36;101486.22;;;19.03;47.51
13456;BME280;6800;50.940;6.940;2023-04-08T05:24:38;101487.19;;;19.13;46.80
13456;BME280;6800;50.940;6.940;2023-04-08T05:28:39;101496.66;;;19.15;46.23
13456;BME280;6800;50.940;6.940;2023-04-08T05:32:40;101499.56;;;19.12;46.48
13456;BME280;6800;50.940;6.940;2023-04-08T05:36:42;101506.91;;;19.09;46.04
13456;BME280;6800;50.940;6.940;2023-04-08T05:40:44;101508.69;;;19.19;46.23
13456;BME280;6800;50.940;6.940;2023-04-08T05:44:45;101506.31;;;19.16;46.09
13456;BME280;6800;50.940;6.940;2023-04-08T05:48:47;101518.72;;;18.94;46.96
13456;BME280;6800;50.940;6.940;2023-04-08T05:52:48;101514.25;;;19.05;46.01
13456;BME280;6800;50.940;6.940;2023-04-08T05:56:50;101531.44;;;19.11;46.21
13456;BME280;6800;50.940;6.940;2023-04-08T06:00:51;101536.97;;;18.40;48.25
13456;BME280;6800;50.940;6.940;2023-04-08T06:04:53;101534.09;;;19.11;46.54
13456;BME280;6800;50.940;6.940;2023-04-08T06:08:54;101537.91;;;18.74;46.66
13456;BME280;6800;50.940;6.940;2023-04-08T06:12:55;101544.09;;;18.85;46.72
13456;BME280;6800;50.940;6.940;2023-04-08T06:16:57;101544.69;;;19.00;46.30
13456;BME280;6800;50.940;6.940;2023-04-08T06:20:58;101546.38;;;19.23;46.17
13456;BME280;6800;50.940;6.940;2023-04-08T06:24:59;101547.81;;;19.16;46.30
13456;BME280;6800;50.940;6.940;2023-04-08T06:29:01;101557.47;;;19.17;46.29
13456;BME280;6800;50.940;6.940;2023-04-08T06:33:03;101556.13;;;19.22;45.78
13456;BME280;6800;50.940;6.940;2023-04-08T06:37:04;101566.00;;;18.52;47.11
13456;BME280;6800;50.940;6.940;2023-04-08T06:41:07;101564.28;;;19.30;45.28
13456;BME280;6800;50.940;6.940;2023-04-08T06:45:09;101554.59;;;19.42;45.27
13456;BME280;6800;50.940;6.940;2023-04-08T06:49:11;101559.25;;;19.38;44.83
13456;BME280;6800;50.940;6.940;2023-04-08T06:53:12;101565.03;;;19.66;44.75
13456;BME280;6800;50.940;6.940;2023-04-08T06:57:14;101566.09;;;19.63;44.93
13456;BME280;6800;50.940;6.940;2023-04-08T07:01:15;101568.38;;;19.68;44.69
13456;BME280;6800;50.940;6.940;2023-04-08T07:05:17;101575.84;;;20.16;44.07
13456;BME280;6800;50.940;6.940;2023-04-08T07:09:18;101578.72;;;20.25;44.09
13456;BME280;6800;50.940;6.940;2023-04-08T07:13:19;101580.28;;;20.16;43.08
13456;BME280;6800;50.940;6.940;2023-04-08T07:17:21;101582.13;;;20.04;43.87
13456;BME280;6800;50.940;6.940;2023-04-08T07:21:22;101579.38;;;20.06;43.91
13456;BME280;6800;50.940;6.940;2023-04-08T07:25:24;101590.03;;;20.27;43.98
13456;BME280;6800;50.940;6.940;2023-04-08T07:29:25;101594.50;;;20.47;44.01
13456;BME280;6800;50.940;6.940;2023-04-08T07:33:28;101585.31;;;21.03;42.42
13456;BME280;6800;50.940;6.940;2023-04-08T07:37:29;101586.19;;;21.13;42.03
13456;BME280;6800;50.940;6.940;2023-04-08T07:41:30;101592.66;;;21.69;40.91
13456;BME280;6800;50.940;6.940;2023-04-08T07:45:32;101588.44;;;22.07;40.42
13456;BME280;6800;50.940;6.940;2023-04-08T07:49:33;101604.81;;;21.93;40.26
13456;BME280;6800;50.940;6.940;2023-04-08T07:53:35;101607.75;;;21.59;40.62
13456;BME280;6800;50.940;6.940;2023-04-08T07:57:36;101602.63;;;21.77;40.67
13456;BME280;6800;50.940;6.940;2023-04-08T08:01:38;101618.28;;;21.70;39.75
13456;BME280;6800;50.940;6.940;2023-04-08T08:05:39;101615.13;;;21.46;40.40
13456;BME280;6800;50.940;6.940;2023-04-08T08:09:41;101609.91;;;21.75;39.74
13456;BME280;6800;50.940;6.940;2023-04-08T08:13:42;101622.50;;;21.33;40.57
13456;BME280;6800;50.940;6.940;2023-04-08T08:17:43;101633.78;;;21.65;39.63
13456;BME280;6800;50.940;6.940;2023-04-08T08:21:45;101630.09;;;21.47;39.36
13456;BME280;6800;50.940;6.940;2023-04-08T08:25:46;101636.56;;;21.24;40.37
13456;BME280;6800;50.940;6.940;2023-04-08T08:29:48;101634.06;;;21.23;39.64
13456;BME280;6800;50.940;6.940;2023-04-08T08:33:49;101633.69;;;20.95;40.62
13456;BME280;6800;50.940;6.940;2023-04-08T08:37:51;101638.03;;;20.96;40.34
13456;BME280;6800;50.940;6.940;2023-04-08T08:41:52;101650.31;;;20.13;41.17
13456;BME280;6800;50.940;6.940;2023-04-08T08:45:54;101645.50;;;20.07;41.87
13456;BME280;6800;50.940;6.940;2023-04-08T08:49:55;101647.00;;;21.16;40.08
13456;BME280;6800;50.940;6.940;2023-04-08T08:54:01;101648.25;;;21.42;39.97
13456;BME280;6800;50.940;6.940;2023-04-08T08:58:02;101650.69;;;21.04;41.88
13456;BME280;6800;50.940;6.940;2023-04-08T09:02:22;101646.66;;;22.10;38.69
13456;BME280;6800;50.940;6.940;2023-04-08T09:06:24;101655.22;;;21.13;40.81
13456;BME280;6800;50.940;6.940;2023-04-08T09:10:27;101651.19;;;22.38;38.34
13456;BME280;6800;50.940;6.940;2023-04-08T09:14:31;101645.97;;;22.08;38.55
13456;BME280;6800;50.940;6.940;2023-04-08T09:18:32;101646.78;;;21.89;38.08
13456;BME280;6800;50.940;6.940;2023-04-08T09:22:53;101651.16;;;21.69;38.10
13456;BME280;6800;50.940;6.940;2023-04-08T09:26:55;101660.28;;;21.76;37.62
13456;BME280;6800;50.940;6.940;2023-04-08T09:30:57;101659.66;;;21.63;38.06
13456;BME280;6800;50.940;6.940;2023-04-08T09:34:58;101664.41;;;21.90;37.32
13456;BME280;6800;50.940;6.940;2023-04-08T09:39:00;101662.22;;;21.44;37.93
13456;BME280;6800;50.940;6.940;2023-04-08T09:43:04;101664.75;;;22.16;37.03
13456;BME280;6800;50.940;6.940;2023-04-08T09:47:17;101670.78;;;22.18;36.71
13456;BME280;6800;50.940;6.940;2023-04-08T09:51:21;101678.63;;;22.29;36.25
13456;BME280;6800;50.940;6.940;2023-04-08T09:55:25;101672.34;;;22.20;35.65
13456;BME280;6800;50.940;6.940;2023-04-08T09:59:29;101668.69;;;23.17;34.45
13456;BME280;6800;50.940;6.940;2023-04-08T10:03:47;101676.22;;;23.41;34.01
13456;BME280;6800;50.940;6.940;2023-04-08T10:07:51;101664.47;;;23.34;35.23
13456;BME280;6800;50.940;6.940;2023-04-08T10:11:53;101668.44;;;22.91;35.36
13456;BME280;6800;50.940;6.940;2023-04-08T10:24:36;101665.09;;;22.89;35.44
13456;BME280;6800;50.940;6.940;2023-04-08T10:28:38;101664.16;;;24.00;34.31
13456;BME280;6800;50.940;6.940;2023-04-08T10:32:39;101667.31;;;24.14;34.20
13456;BME280;6800;50.940;6.940;2023-04-08T10:36:41;101668.66;;;23.36;34.44
13456;BME280;6800;50.940;6.940;2023-04-08T10:40:43;101672.03;;;23.19;34.31
13456;BME280;6800;50.940;6.940;2023-04-08T10:44:44;101671.72;;;23.32;34.43
13456;BME280;6800;50.940;6.940;2023-04-08T10:48:58;101670.44;;;23.82;34.08
13456;BME280;6800;50.940;6.940;2023-04-08T10:53:00;101672.81;;;22.73;35.84
13456;BME280;6800;50.940;6.940;2023-04-08T10:57:03;101669.13;;;23.12;35.47
13456;BME280;6800;50.940;6.940;2023-04-08T11:01:08;101677.00;;;22.85;36.07
13456;BME280;6800;50.940;6.940;2023-04-08T11:05:09;101669.53;;;23.17;35.07
13456;BME280;6800;50.940;6.940;2023-04-08T11:09:13;101653.69;;;23.62;34.01
13456;BME280;6800;50.940;6.940;2023-04-08T11:13:15;101656.41;;;23.80;33.51
13456;BME280;6800;50.940;6.940;2023-04-08T11:17:17;101653.44;;;23.56;32.90
13456;BME280;6800;50.940;6.940;2023-04-08T11:21:19;101652.28;;;23.12;33.38
13456;BME280;6800;50.940;6.940;2023-04-08T11:25:22;101656.75;;;23.31;33.38
13456;BME280;6800;50.940;6.940;2023-04-08T11:29:23;101649.09;;;23.82;31.85
13456;BME280;6800;50.940;6.940;2023-04-08T11:33:25;101655.84;;;22.74;34.04
13456;BME280;6800;50.940;6.940;2023-04-08T11:37:39;101649.06;;;23.64;32.90
13456;BME280;6800;50.940;6.940;2023-04-08T11:41:41;101644.59;;;23.82;32.55
13456;BME280;6800;50.940;6.940;2023-04-08T11:45:43;101638.59;;;23.44;32.51
13456;BME280;6800;50.940;6.940;2023-04-08T11:49:45;101648.59;;;23.22;33.12
13456;BME280;6800;50.940;6.940;2023-04-08T11:53:46;101643.78;;;22.89;33.36
13456;BME280;6800;50.940;6.940;2023-04-08T11:57:49;101659.06;;;22.78;33.94
13456;BME280;6800;50.940;6.940;2023-04-08T12:01:52;101653.97;;;23.13;33.49
13456;BME280;6800;50.940;6.940;2023-04-08T12:05:53;101643.34;;;22.84;33.99
13456;BME280;6800;50.940;6.940;2023-04-08T12:09:55;101651.34;;;22.65;33.22
13456;BME280;6800;50.940;6.940;2023-04-08T12:13:56;101657.53;;;22.66;33.57
13456;BME280;6800;50.940;6.940;2023-04-08T12:17:58;101655.25;;;22.99;33.76
13456;BME280;6800;50.940;6.940;2023-04-08T12:21:59;101651.84;;;22.02;33.95
13456;BME280;6800;50.940;6.940;2023-04-08T12:26:00;101651.91;;;22.40;33.85
13456;BME280;6800;50.940;6.940;2023-04-08T12:30:02;101663.78;;;23.22;32.51
13456;BME280;6800;50.940;6.940;2023-04-08T12:34:04;101656.28;;;22.79;32.77
13456;BME280;6800;50.940;6.940;2023-04-08T12:38:06;101656.59;;;23.22;32.28
13456;BME280;6800;50.940;6.940;2023-04-08T12:42:08;101660.91;;;22.77;33.22
13456;BME280;6800;50.940;6.940;2023-04-08T12:46:09;101661.53;;;23.08;32.51
13456;BME280;6800;50.940;6.940;2023-04-08T12:50:11;101659.41;;;23.21;32.54
13456;BME280;6800;50.940;6.940;2023-04-08T12:54:12;101655.25;;;22.99;32.39
13456;BME280;6800;50.940;6.940;2023-04-08T12:58:13;101654.97;;;22.54;33.33
13456;BME280;6800;50.940;6.940;2023-04-08T13:02:16;101647.78;;;23.12;32.32
13456;BME280;6800;50.940;6.940;2023-04-08T13:06:18;101643.22;;;23.78;32.81
13456;BME280;6800;50.940;6.940;2023-04-08T13:10:19;101650.78;;;22.52;33.69
13456;BME280;6800;50.940;6.940;2023-04-08T13:14:21;101640.28;;;23.99;31.64
13456;BME280;6800;50.940;6.940;2023-04-08T13:18:22;101648.97;;;23.83;31.57
13456;BME280;6800;50.940;6.940;2023-04-08T13:22:23;101644.59;;;22.99;33.29
13456;BME280;6800;50.940;6.940;2023-04-08T13:26:25;101636.34;;;23.49;31.92
13456;BME280;6800;50.940;6.940;2023-04-08T13:30:26;101649.97;;;24.27;30.83
13456;BME280;6800;50.940;6.940;2023-04-08T13:34:28;101643.56;;;23.93;31.06
13456;BME280;6800;50.940;6.940;2023-04-08T13:38:29;101633.84;;;23.74;29.77
13456;BME280;6800;50.940;6.940;2023-04-08T13:42:30;101633.00;;;23.47;28.62
13456;BME280;6800;50.940;6.940;2023-04-08T13:46:33;101634.63;;;23.11;28.82
13456;BME280;6800;50.940;6.940;2023-04-08T13:50:34;101635.53;;;23.29;28.46
13456;BME280;6800;50.940;6.940;2023-04-08T13:54:36;101634.03;;;23.36;29.34
13456;BME280;6800;50.940;6.940;2023-04-08T13:58:37;101633.28;;;23.44;29.61
13456;BME280;6800;50.940;6.940;2023-04-08T14:02:39;101644.19;;;21.78;32.48
13456;BME280;6800;50.940;6.940;2023-04-08T14:06:40;101633.38;;;22.10;32.02
13456;BME280;6800;50.940;6.940;2023-04-08T14:10:43;101631.91;;;23.20;29.58
13456;BME280;6800;50.940;6.940;2023-04-08T14:14:45;101636.84;;;21.91;32.19
13456;BME280;6800;50.940;6.940;2023-04-08T14:18:46;101633.19;;;23.16;29.77
13456;BME280;6800;50.940;6.940;2023-04-08T14:22:47;101640.91;;;20.63;33.64
13456;BME280;6800;50.940;6.940;2023-04-08T14:26:49;101630.78;;;21.80;32.00
13456;BME280;6800;50.940;6.940;2023-04-08T14:30:50;101632.38;;;21.61;32.34
13456;BME280;6800;50.940;6.940;2023-04-08T14:34:52;101647.44;;;20.16;34.61
13456;BME280;6800;50.940;6.940;2023-04-08T14:38:54;101643.31;;;21.08;32.81
13456;BME280;6800;50.940;6.940;2023-04-08T14:42:55;101642.47;;;21.07;33.14
13456;BME280;6800;50.940;6.940;2023-04-08T14:46:57;101652.47;;;20.19;34.81
13456;BME280;6800;50.940;6.940;2023-04-08T14:50:58;101633.13;;;22.22;31.76
13456;BME280;6800;50.940;6.940;2023-04-08T14:55:00;101641.13;;;22.70;32.05
13456;BME280;6800;50.940;6.940;2023-04-08T14:59:01;101635.66;;;22.24;32.48
13456;BME280;6800;50.940;6.940;2023-04-08T15:03:03;101639.19;;;22.72;30.96
13456;BME280;6800;50.940;6.940;2023-04-08T15:07:04;101640.44;;;22.68;31.44
13456;BME280;6800;50.940;6.940;2023-04-08T15:11:06;101632.31;;;22.79;32.22
13456;BME280;6800;50.940;6.940;2023-04-08T15:15:08;101638.03;;;22.46;32.31
13456;BME280;6800;50.940;6.940;2023-04-08T15:19:09;101636.88;;;21.61;34.58
13456;BME280;6800;50.940;6.940;2023-04-08T15:23:11;101642.16;;;20.48;36.86
13456;BME280;6800;50.940;6.940;2023-04-08T15:27:13;101636.63;;;22.13;34.03
13456;BME280;6800;50.940;6.940;2023-04-08T15:31:16;101644.47;;;22.34;33.46
13456;BME280;6800;50.940;6.940;2023-04-08T15:35:17;101633.44;;;22.67;33.02
13456;BME280;6800;50.940;6.940;2023-04-08T15:39:19;101623.06;;;22.74;33.07
13456;BME280;6800;50.940;6.940;2023-04-08T15:43:20;101642.53;;;22.74;33.51
13456;BME280;6800;50.940;6.940;2023-04-08T15:47:22;101636.59;;;22.99;33.43
13456;BME280;6800;50.940;6.940;2023-04-08T15:51:23;101638.72;;;22.48;34.61
13456;BME280;6800;50.940;6.940;2023-04-08T15:55:25;101644.31;;;22.54;34.39
13456;BME280;6800;50.940;6.940;2023-04-08T15:59:30;101641.34;;;22.10;35.75
13456;BME280;6800;50.940;6.940;2023-04-08T16:03:32;101638.19;;;22.64;34.72
13456;BME280;6800;50.940;6.940;2023-04-08T16:07:34;101634.34;;;22.18;35.67
13456;BME280;6800;50.940;6.940;2023-04-08T16:11:36;101634.38;;;22.28;35.73
13456;BME280;6800;50.940;6.940;2023-04-08T16:15:37;101638.03;;;22.56;35.06
13456;BME280;6800;50.940;6.940;2023-04-08T16:19:39;101637.78;;;22.68;34.85
13456;BME280;6800;50.940;6.940;2023-04-08T16:23:40;101645.69;;;20.90;38.14
13456;BME280;6800;50.940;6.940;2023-04-08T16:27:42;101641.38;;;22.29;35.65
13456;BME280;6800;50.940;6.940;2023-04-08T16:31:43;101637.88;;;22.57;35.49
13456;BME280;6800;50.940;6.940;2023-04-08T16:35:44;101644.22;;;22.37;35.46
13456;BME280;6800;50.940;6.940;2023-04-08T16:39:46;101646.69;;;22.48;35.31
13456;BME280;6800;50.940;6.940;2023-04-08T16:43:48;101648.81;;;22.44;35.60
13456;BME280;6800;50.940;6.940;2023-04-08T16:47:49;101663.00;;;20.53;38.94
13456;BME280;6800;50.940;6.940;2023-04-08T16:51:51;101655.19;;;21.04;37.69
13456;BME280;6800;50.940;6.940;2023-04-08T16:55:52;101648.88;;;21.86;36.66
13456;BME280;6800;50.940;6.940;2023-04-08T16:59:54;101653.28;;;21.15;37.75
13456;BME280;6800;50.940;6.940;2023-04-08T17:03:55;101654.03;;;21.87;36.78
13456;BME280;6800;50.940;6.940;2023-04-08T17:07:57;101641.63;;;22.07;36.21
13456;BME280;6800;50.940;6.940;2023-04-08T17:11:59;101648.09;;;22.14;36.64
13456;BME280;6800;50.940;6.940;2023-04-08T17:16:02;101648.06;;;21.95;36.82
13456;BME280;6800;50.940;6.940;2023-04-08T17:20:04;101660.53;;;21.13;38.26
13456;BME280;6800;50.940;6.940;2023-04-08T17:24:05;101652.59;;;21.43;37.74
13456;BME280;6800;50.940;6.940;2023-04-08T17:28:07;101655.78;;;21.37;37.61
13456;BME280;6800;50.940;6.940;2023-04-08T17:32:08;101647.75;;;21.28;37.82
13456;BME280;6800;50.940;6.940;2023-04-08T17:36:10;101657.00;;;21.03;38.43
13456;BME280;6800;50.940;6.940;2023-04-08T17:40:12;101656.91;;;20.62;39.45
13456;BME280;6800;50.940;6.940;2023-04-08T17:44:13;101668.81;;;19.37;42.24
13456;BME280;6800;50.940;6.940;2023-04-08T17:48:14;101667.09;;;19.92;40.83
13456;BME280;6800;50.940;6.940;2023-04-08T17:52:16;101675.13;;;20.35;39.57
13456;BME280;6800;50.940;6.940;2023-04-08T17:56:17;101678.19;;;19.86;41.10
13456;BME280;6800;50.940;6.940;2023-04-08T18:00:18;101680.22;;;20.27;40.61
13456;BME280;6800;50.940;6.940;2023-04-08T18:04:20;101684.28;;;20.31;40.01
13456;BME280;6800;50.940;6.940;2023-04-08T18:08:22;101686.72;;;20.11;40.42
13456;BME280;6800;50.940;6.940;2023-04-08T18:12:26;101692.25;;;20.19;40.58
13456;BME280;6800;50.940;6.940;2023-04-08T18:16:28;101691.63;;;20.38;39.90
13456;BME280;6800;50.940;6.940;2023-04-08T18:20:29;101694.22;;;19.84;41.15
13456;BME280;6800;50.940;6.940;2023-04-08T18:24:31;101703.84;;;20.07;40.49
13456;BME280;6800;50.940;6.940;2023-04-08T18:28:32;101697.94;;;19.71;41.46
13456;BME280;6800;50.940;6.940;2023-04-08T18:32:33;101706.13;;;20.12;40.60
13456;BME280;6800;50.940;6.940;2023-04-08T18:36:35;101703.25;;;20.04;40.65
13456;BME280;6800;50.940;6.940;2023-04-08T18:40:37;101711.06;;;19.94;40.42
13456;BME280;6800;50.940;6.940;2023-04-08T18:44:38;101715.91;;;19.67;41.30
13456;BME280;6800;50.940;6.940;2023-04-08T18:48:39;101719.25;;;19.58;41.46
13456;BME280;6800;50.940;6.940;2023-04-08T18:52:41;101722.09;;;18.98;42.81
13456;BME280;6800;50.940;6.940;2023-04-08T18:56:43;101725.41;;;19.59;41.82
13456;BME280;6800;50.940;6.940;2023-04-08T19:00:44;101724.88;;;18.49;44.16
13456;BME280;6800;50.940;6.940;2023-04-08T19:04:46;101738.66;;;17.93;46.05
13456;BME280;6800;50.940;6.940;2023-04-08T19:08:47;101739.03;;;19.30;42.33
13456;BME280;6800;50.940;6.940;2023-04-08T19:12:49;101741.00;;;18.70;43.40
13456;BME280;6800;50.940;6.940;2023-04-08T19:16:51;101741.81;;;19.64;41.72
13456;BME280;6800;50.940;6.940;2023-04-08T19:20:52;101741.34;;;18.65;44.11
13456;BME280;6800;50.940;6.940;2023-04-08T19:24:54;101744.97;;;18.99;42.97
13456;BME280;6800;50.940;6.940;2023-04-08T19:28:55;101755.00;;;19.18;42.77
13456;BME280;6800;50.940;6.940;2023-04-08T19:32:57;101744.53;;;19.40;41.95
13456;BME280;6800;50.940;6.940;2023-04-08T19:36:58;101747.22;;;18.45;43.83
13456;BME280;6800;50.940;6.940;2023-04-08T19:41:00;101746.09;;;18.24;44.43
13456;BME280;6800;50.940;6.940;2023-04-08T19:45:02;101754.69;;;18.15;44.81
13456;BME280;6800;50.940;6.940;2023-04-08T19:49:05;101751.44;;;18.48;44.41
13456;BME280;6800;50.940;6.940;2023-04-08T19:53:06;101746.09;;;18.84;43.33
13456;BME280;6800;50.940;6.940;2023-04-08T19:57:08;101751.22;;;18.98;42.66
13456;BME280;6800;50.940;6.940;2023-04-08T20:01:10;101756.94;;;19.16;42.75
13456;BME280;6800;50.940;6.940;2023-04-08T20:05:14;101765.13;;;19.13;42.75
13456;BME280;6800;50.940;6.940;2023-04-08T20:09:16;101762.97;;;18.94;43.07
13456;BME280;6800;50.940;6.940;2023-04-08T20:13:17;101764.50;;;18.86;43.31
13456;BME280;6800;50.940;6.940;2023-04-08T20:17:19;101760.91;;;19.21;42.86
13456;BME280;6800;50.940;6.940;2023-04-08T20:21:20;101759.00;;;18.65;43.54
13456;BME280;6800;50.940;6.940;2023-04-08T20:25:22;101766.41;;;18.24;45.08
13456;BME280;6800;50.940;6.940;2023-04-08T20:29:23;101760.47;;;18.20;44.46
13456;BME280;6800;50.940;6.940;2023-04-08T20:33:25;101757.16;;;18.78;43.51
13456;BME280;6800;50.940;6.940;2023-04-08T20:37:27;101752.41;;;18.70;43.57
13456;BME280;6800;50.940;6.940;2023-04-08T20:41:29;101755.44;;;18.41;44.50
13456;BME280;6800;50.940;6.940;2023-04-08T20:45:30;101758.84;;;19.14;42.97
13456;BME280;6800;50.940;6.940;2023-04-08T20:49:32;101758.25;;;19.34;42.14
13456;BME280;6800;50.940;6.940;2023-04-08T20:53:35;101755.38;;;18.90;43.17
13456;BME280;6800;50.940;6.940;2023-04-08T20:57:37;101750.28;;;18.39;44.55
13456;BME280;6800;50.940;6.940;2023-04-08T21:01:38;101747.53;;;19.12;42.57
13456;BME280;6800;50.940;6.940;2023-04-08T21:05:40;101751.66;;;19.16;42.57
13456;BME280;6800;50.940;6.940;2023-04-08T21:09:42;101747.75;;;18.98;43.04
13456;BME280;6800;50.940;6.940;2023-04-08T21:13:43;101741.88;;;19.40;42.64
13456;BME280;6800;50.940;6.940;2023-04-08T21:17:48;101748.06;;;19.85;41.17
13456;BME280;6800;50.940;6.940;2023-04-08T21:21:49;101751.78;;;18.31;43.83
13456;BME280;6800;50.940;6.940;2023-04-08T21:25:51;101755.91;;;18.95;43.06
13456;BME280;6800;50.940;6.940;2023-04-08T21:29:52;101740.44;;;19.36;42.23